Time;durP1;ratioP1;P1;durP2;ratioP2;P2;SDS_P1;SDS_P2;PMS_P1;PMS_P2;Temp;Humidity;BMP_temperature;BMP_pressure;BME280_temperature;BME280_humidity;BME280_pressure;Samples;Min_cycle;Max_cycle;Signal;HPM_P1;HPM_P2
2022/05/28 00:03:34;;;;;;;4.15;0.82;;;16.60;80.90;;;;;;10541463;28;20047;-60
2022/05/28 00:08:35;;;;;;;2.10;0.70;;;16.60;81.50;;;;;;10541233;28;20021;-59
2022/05/28 00:13:36;;;;;;;5.18;1.00;;;16.60;80.90;;;;;;10540832;28;20036;-61
2022/05/28 00:18:38;;;;;;;3.05;1.00;;;16.50;80.90;;;;;;10540965;28;20370;-56
2022/05/28 00:23:41;;;;;;;3.13;0.68;;;16.60;80.90;;;;;;10540681;28;20102;-56
2022/05/28 00:28:42;;;;;;;4.20;0.70;;;16.50;80.90;;;;;;10540405;28;20036;-55
2022/05/28 00:33:43;;;;;;;1.30;0.60;;;16.50;80.90;;;;;;10540190;28;20036;-59
2022/05/28 00:38:45;;;;;;;2.22;0.75;;;16.50;80.90;;;;;;10539959;28;20075;-58
2022/05/28 00:43:46;;;;;;;2.22;0.90;;;16.50;80.90;;;;;;10539720;28;20094;-57
2022/05/28 00:48:51;;;;;;;3.17;0.55;;;16.50;80.90;;;;;;10539155;28;20059;-55
2022/05/28 00:53:56;;;;;;;2.63;0.70;;;16.50;81.60;;;;;;10539232;28;20408;-59
2022/05/28 00:58:58;;;;;;;4.47;0.73;;;16.50;81.00;;;;;;10539036;28;20040;-55
2022/05/28 01:04:35;;;;;;;2.47;0.60;;;16.50;81.10;;;;;;10538891;28;20040;-56
2022/05/28 01:09:48;;;;;;;1.20;0.60;;;16.40;81.00;;;;;;10538645;28;20123;-56
2022/05/28 01:15:09;;;;;;;1.60;0.60;;;16.40;81.00;;;;;;10538737;28;20035;-61
2022/05/28 01:20:33;;;;;;;3.63;0.70;;;16.40;81.00;;;;;;10538072;28;20111;-55
2022/05/28 01:25:48;;;;;;;1.45;0.52;;;16.40;81.10;;;;;;10537701;28;20077;-55
2022/05/28 01:30:51;;;;;;;1.17;0.50;;;16.40;81.20;;;;;;10538058;28;20062;-55
2022/05/28 01:35:53;;;;;;;2.85;0.50;;;16.30;81.20;;;;;;10537943;28;20052;-61
2022/05/28 01:40:54;;;;;;;2.47;0.57;;;16.30;81.20;;;;;;10538013;28;20048;-55
2022/05/28 01:45:56;;;;;;;3.80;0.77;;;16.30;81.30;;;;;;10537532;28;20496;-59
2022/05/28 01:50:58;;;;;;;1.65;0.55;;;16.30;81.30;;;;;;10537313;28;20102;-53
2022/05/28 01:56:00;;;;;;;2.45;0.60;;;16.20;81.30;;;;;;10536767;28;20111;-62
2022/05/28 02:01:04;;;;;;;0.70;0.30;;;16.20;81.40;;;;;;10536398;28;20587;-55
2022/05/28 02:06:04;;;;;;;2.53;0.50;;;16.20;81.40;;;;;;10536604;28;20024;-58
2022/05/28 02:11:13;;;;;;;1.75;0.55;;;16.10;81.30;;;;;;10537142;28;20384;-58
2022/05/28 02:16:18;;;;;;;1.75;0.60;;;16.10;81.30;;;;;;10536533;28;20037;-62
2022/05/28 02:21:26;;;;;;;1.67;0.40;;;16.10;81.40;;;;;;10536175;28;20374;-62
2022/05/28 02:26:30;;;;;;;;;;;16.10;81.40;;;;;;10536463;28;20364;-55
2022/05/28 02:31:33;;;;;;;2.15;0.70;;;16.10;81.20;;;;;;10535990;28;19911;-55
2022/05/28 02:36:34;;;;;;;2.53;0.52;;;16.00;81.30;;;;;;10535834;28;20527;-58
2022/05/28 02:41:35;;;;;;;3.28;0.50;;;16.00;81.30;;;;;;10535938;28;20125;-57
2022/05/28 02:46:36;;;;;;;2.53;0.63;;;16.00;81.30;;;;;;10535867;28;20595;-61
2022/05/28 02:51:37;;;;;;;4.00;0.60;;;16.00;81.30;;;;;;10535662;28;20116;-56
2022/05/28 02:56:38;;;;;;;2.15;0.70;;;16.00;81.90;;;;;;10535604;28;20043;-54
2022/05/28 03:01:38;;;;;;;1.70;0.63;;;16.00;81.30;;;;;;10535411;28;20054;-62
2022/05/28 03:06:39;;;;;;;1.92;0.68;;;15.90;81.20;;;;;;10535384;28;20078;-61
2022/05/28 03:11:40;;;;;;;2.72;0.60;;;15.90;81.10;;;;;;10542080;28;20086;-54
2022/05/28 03:16:42;;;;;;;2.33;0.63;;;15.90;81.10;;;;;;10543328;28;20530;-59
2022/05/28 03:21:43;;;;;;;1.95;0.65;;;15.90;81.10;;;;;;10543155;28;20090;-58
2022/05/28 03:26:43;;;;;;;1.27;0.50;;;15.90;81.10;;;;;;10543047;28;20098;-62
2022/05/28 03:31:44;;;;;;;1.63;0.60;;;15.90;81.10;;;;;;10542719;28;20032;-62
2022/05/28 03:36:45;;;;;;;3.40;0.60;;;15.80;81.60;;;;;;10542548;28;20044;-61
2022/05/28 03:41:46;;;;;;;3.20;0.73;;;15.80;81.00;;;;;;10542251;28;20101;-62
2022/05/28 03:46:47;;;;;;;2.47;0.52;;;15.80;81.00;;;;;;10542680;28;20036;-63
2022/05/28 03:51:49;;;;;;;2.90;0.70;;;15.80;81.00;;;;;;10542048;28;20047;-59
2022/05/28 03:56:54;;;;;;;5.00;1.13;;;15.80;81.00;;;;;;10541789;28;20162;-57
2022/05/28 04:01:56;;;;;;;3.63;0.73;;;15.80;80.90;;;;;;10541751;28;20510;-56
2022/05/28 04:06:59;;;;;;;1.73;0.60;;;15.80;80.90;;;;;;10541791;28;20086;-56
2022/05/28 04:12:00;;;;;;;5.03;0.80;;;15.80;80.90;;;;;;10541100;28;20149;-55
2022/05/28 04:17:01;;;;;;;3.70;0.90;;;15.70;80.80;;;;;;10541060;28;20153;-58
2022/05/28 04:22:02;;;;;;;4.70;0.70;;;15.80;80.90;;;;;;10539617;28;20515;-58
2022/05/28 04:27:02;;;;;;;1.98;0.70;;;15.70;80.70;;;;;;10540552;28;20035;-61
2022/05/28 04:32:04;;;;;;;2.97;0.90;;;15.70;80.70;;;;;;10540505;28;20035;-61
2022/05/28 04:37:04;;;;;;;2.15;0.65;;;15.70;80.90;;;;;;10540263;28;20044;-57
2022/05/28 04:42:05;;;;;;;4.47;0.75;;;15.70;80.70;;;;;;10540133;28;20040;-54
2022/05/28 04:47:07;;;;;;;1.67;0.85;;;15.70;80.60;;;;;;10539888;28;20059;-62
2022/05/28 04:52:07;;;;;;;1.45;0.63;;;15.70;80.60;;;;;;10539562;28;20047;-59
2022/05/28 04:57:08;;;;;;;3.95;0.73;;;15.70;80.60;;;;;;10539456;28;20043;-59
2022/05/28 05:02:09;;;;;;;3.13;0.70;;;15.70;80.50;;;;;;10538932;28;20079;-59
2022/05/28 05:07:10;;;;;;;2.58;0.93;;;15.60;80.50;;;;;;10538966;28;20036;-56
2022/05/28 05:12:11;;;;;;;5.57;0.73;;;15.60;80.40;;;;;;10538698;28;20032;-56
2022/05/28 05:17:12;;;;;;;6.38;1.65;;;15.60;80.40;;;;;;10538352;28;20360;-55
2022/05/28 05:22:13;;;;;;;3.85;0.70;;;15.60;80.40;;;;;;10538152;28;20035;-61
2022/05/28 05:27:13;;;;;;;4.75;0.90;;;15.60;80.40;;;;;;10538148;28;20408;-58
2022/05/28 05:32:14;;;;;;;1.17;0.90;;;15.60;80.40;;;;;;10537824;28;20040;-59
2022/05/28 05:37:15;;;;;;;2.95;0.60;;;15.60;80.30;;;;;;10537659;28;20044;-61
2022/05/28 05:42:16;;;;;;;5.45;0.82;;;15.60;80.30;;;;;;10537603;28;20128;-62
2022/05/28 05:47:16;;;;;;;4.45;0.80;;;15.60;80.20;;;;;;10537300;28;20482;-56
2022/05/28 05:52:18;;;;;;;2.67;0.60;;;15.60;80.20;;;;;;10537255;28;20040;-59
2022/05/28 05:57:18;;;;;;;3.63;0.73;;;15.60;80.20;;;;;;10537222;28;20089;-62
2022/05/28 06:02:19;;;;;;;2.65;0.93;;;15.60;80.10;;;;;;10536736;28;20059;-56
2022/05/28 06:07:20;;;;;;;4.10;0.80;;;15.60;80.10;;;;;;10537022;28;20413;-57
2022/05/28 06:12:21;;;;;;;2.75;1.05;;;15.60;80.10;;;;;;10536443;28;20089;-51
2022/05/28 06:17:21;;;;;;;2.83;0.60;;;15.60;80.00;;;;;;10536578;28;20051;-60
2022/05/28 06:22:22;;;;;;;3.38;0.80;;;15.60;80.00;;;;;;10536344;28;20044;-62
2022/05/28 06:27:23;;;;;;;2.03;0.77;;;15.60;80.00;;;;;;10535983;28;20028;-57
2022/05/28 06:32:23;;;;;;;5.38;1.17;;;15.60;80.00;;;;;;10536023;28;20048;-64
2022/05/28 06:37:25;;;;;;;4.10;1.20;;;15.70;80.00;;;;;;10531686;28;20134;-61
2022/05/28 06:42:25;;;;;;;3.00;0.73;;;15.70;80.00;;;;;;10535765;28;20396;-63
2022/05/28 06:47:27;;;;;;;2.55;0.90;;;15.70;79.90;;;;;;10544085;28;20040;-63
2022/05/28 06:52:27;;;;;;;2.90;0.82;;;15.70;79.90;;;;;;10544328;28;20047;-58
2022/05/28 06:57:28;;;;;;;3.42;0.70;;;15.70;79.80;;;;;;10544145;28;20038;-57
2022/05/28 07:02:29;;;;;;;5.47;0.85;;;15.70;79.70;;;;;;10543667;28;20475;-58
2022/05/28 07:07:29;;;;;;;4.68;0.98;;;15.80;79.70;;;;;;10543821;28;20400;-58
2022/05/28 07:12:30;;;;;;;3.80;1.00;;;15.80;79.60;;;;;;10543540;28;20120;-58
2022/05/28 07:17:31;;;;;;;3.38;0.95;;;15.80;79.70;;;;;;10543573;28;20046;-62
2022/05/28 07:22:31;;;;;;;3.47;0.80;;;15.80;79.60;;;;;;10542568;28;20520;-60
2022/05/28 07:27:32;;;;;;;4.13;1.40;;;15.80;79.50;;;;;;10542410;28;20047;-61
2022/05/28 07:32:32;;;;;;;3.17;1.00;;;15.80;79.40;;;;;;10542936;28;20424;-59
2022/05/28 07:37:33;;;;;;;3.00;0.77;;;15.90;79.40;;;;;;10542332;28;20052;-58
2022/05/28 07:42:34;;;;;;;2.30;1.00;;;15.90;79.40;;;;;;10541963;28;20178;-59
2022/05/28 07:47:34;;;;;;;3.70;0.80;;;15.90;79.30;;;;;;10541946;28;20507;-57
2022/05/28 07:52:35;;;;;;;2.83;0.98;;;15.90;79.30;;;;;;10541624;28;20469;-62
2022/05/28 07:57:36;;;;;;;4.20;0.77;;;15.90;79.30;;;;;;10540399;28;20029;-57
2022/05/28 08:02:36;;;;;;;4.00;0.90;;;16.00;79.20;;;;;;10541322;28;20052;-60
2022/05/28 08:07:37;;;;;;;2.92;1.02;;;16.00;79.20;;;;;;10541571;28;20131;-67
2022/05/28 08:12:38;;;;;;;4.93;1.08;;;16.00;79.20;;;;;;10541049;28;20067;-57
2022/05/28 08:17:39;;;;;;;2.42;0.90;;;16.00;79.20;;;;;;10540637;28;20028;-68
2022/05/28 08:27:59;;;;;;;2.30;0.90;;;16.10;79.20;;;;;;10538863;28;20036;-64
2022/05/28 08:32:59;;;;;;;5.13;1.30;;;16.10;79.20;;;;;;10538714;28;20059;-56
2022/05/28 08:38:05;;;;;;;5.15;1.10;;;16.10;79.10;;;;;;10538469;28;20525;-57
2022/05/28 08:43:07;;;;;;;4.55;1.02;;;16.20;79.00;;;;;;10538438;28;20133;-56
2022/05/28 08:48:08;;;;;;;4.22;0.90;;;16.20;79.00;;;;;;10538513;28;20043;-60
2022/05/28 08:53:15;;;;;;;3.95;0.95;;;16.30;79.10;;;;;;10538192;28;20500;-60
2022/05/28 08:58:23;;;;;;;4.13;1.20;;;16.30;78.90;;;;;;10538049;28;20028;-64
2022/05/28 09:03:28;;;;;;;2.72;0.90;;;16.30;79.00;;;;;;10539115;28;20055;-61
2022/05/28 09:08:31;;;;;;;4.60;1.02;;;16.30;79.00;;;;;;10538651;28;20119;-60
2022/05/28 09:13:41;;;;;;;5.97;1.10;;;16.40;79.00;;;;;;10539102;28;20476;-62
2022/05/28 09:18:42;;;;;;;2.88;1.33;;;16.40;78.80;;;;;;10538453;28;20480;-55
2022/05/28 09:23:54;;;;;;;3.63;1.10;;;16.50;78.70;;;;;;10537859;28;20105;-64
2022/05/28 09:29:24;;;;;;;3.38;1.10;;;16.50;78.80;;;;;;10538066;28;20032;-61
2022/05/28 09:34:47;;;;;;;1.92;0.77;;;16.50;78.60;;;;;;10528120;28;20524;-56
2022/05/28 09:40:02;;;;;;;4.28;1.10;;;16.50;79.10;;;;;;10537625;28;20036;-63
2022/05/28 09:45:11;;;;;;;5.18;1.23;;;16.60;79.00;;;;;;10537479;28;20043;-62
2022/05/28 09:50:27;;;;;;;4.10;0.95;;;16.70;78.90;;;;;;10537581;28;20031;-56
2022/05/28 09:55:28;;;;;;;4.38;1.05;;;16.70;78.90;;;;;;10537150;28;20028;-60
2022/05/28 10:00:29;;;;;;;3.72;1.42;;;16.70;79.00;;;;;;10537418;28;20132;-59
2022/05/28 10:05:33;;;;;;;4.78;1.00;;;16.70;79.00;;;;;;10536949;28;20047;-57
2022/05/28 10:10:35;;;;;;;5.35;1.27;;;16.70;78.90;;;;;;10536579;28;20530;-60
2022/05/28 10:15:43;;;;;;;7.22;1.70;;;16.60;78.10;;;;;;10536606;28;20040;-59
2022/05/28 10:20:44;;;;;;;9.30;1.70;;;16.40;77.00;;;;;;10535480;28;20040;-58
2022/05/28 10:25:48;;;;;;;9.38;1.45;;;16.40;76.60;;;;;;10536020;28;20028;-61
2022/05/28 10:30:49;;;;;;;4.50;1.20;;;16.30;76.40;;;;;;10536295;28;20413;-58
2022/05/28 10:35:51;;;;;;;9.23;1.48;;;16.20;76.20;;;;;;10535790;28;20090;-59
2022/05/28 10:41:00;;;;;;;3.88;1.20;;;16.20;75.90;;;;;;10535736;28;20515;-59
2022/05/28 10:46:04;;;;;;;8.88;1.60;;;16.00;75.80;;;;;;10535917;28;20025;-63
2022/05/28 10:51:41;;;;;;;8.98;1.73;;;15.70;76.10;;;;;;10535938;28;20044;-57
2022/05/28 10:57:01;;;;;;;4.17;1.17;;;15.80;75.70;;;;;;10535743;28;20036;-57
2022/05/28 11:02:22;;;;;;;6.80;1.40;;;15.90;75.60;;;;;;10535281;28;20338;-62
2022/05/28 11:07:48;;;;;;;6.70;1.33;;;15.90;76.00;;;;;;10535289;28;20460;-58
2022/05/28 11:13:05;;;;;;;8.55;1.35;;;15.90;75.70;;;;;;10535213;28;20032;-61
2022/05/28 11:18:33;;;;;;;8.60;1.58;;;15.80;75.50;;;;;;10535122;28;20064;-61
2022/05/28 11:23:44;;;;;;;8.33;1.63;;;15.90;75.50;;;;;;10535010;28;20509;-61
2022/05/28 11:28:51;;;;;;;9.05;1.27;;;16.20;74.80;;;;;;10535001;28;20032;-60
2022/05/28 11:33:54;;;;;;;7.68;1.50;;;16.20;75.20;;;;;;10542915;28;20476;-60
2022/05/28 11:39:37;;;;;;;11.60;2.28;;;16.00;75.30;;;;;;10542464;28;20161;-63
2022/05/28 11:44:46;;;;;;;8.20;1.48;;;15.70;75.10;;;;;;10542755;28;20051;-64
2022/05/28 11:55:21;;;;;;;6.03;1.55;;;15.60;74.90;;;;;;10542005;28;20036;-60
2022/05/28 12:00:23;;;;;;;2.63;1.08;;;15.60;75.20;;;;;;10541322;28;20500;-61
2022/05/28 12:05:39;;;;;;;7.97;1.42;;;16.20;73.80;;;;;;10541890;28;20032;-65
2022/05/28 12:10:51;;;;;;;6.63;1.35;;;16.50;73.10;;;;;;10541606;28;20028;-61
2022/05/28 12:16:04;;;;;;;4.75;1.20;;;16.20;73.20;;;;;;10540204;28;20044;-60
2022/05/28 12:21:04;;;;;;;8.80;1.25;;;15.80;73.00;;;;;;10540769;28;20052;-60
2022/05/28 12:27:18;;;;;;;3.65;1.38;;;15.60;74.30;;;;;;10540384;28;20412;-60
2022/05/28 12:32:18;;;;;;;5.68;1.58;;;16.00;73.50;;;;;;10531731;28;20036;-61
2022/05/28 12:37:24;;;;;;;6.00;1.10;;;16.60;71.80;;;;;;10539998;28;20619;-61
2022/05/28 12:42:30;;;;;;;7.05;1.30;;;17.10;71.10;;;;;;10539210;28;20420;-67
2022/05/28 12:47:31;;;;;;;7.72;1.60;;;16.90;70.70;;;;;;10539609;28;20032;-58
2022/05/28 12:52:59;;;;;;;7.60;2.28;;;16.20;71.30;;;;;;10539397;28;20044;-61
2022/05/28 12:58:06;;;;;;;14.85;2.28;;;16.10;71.60;;;;;;10539273;28;20158;-61
2022/05/28 13:03:08;;;;;;;8.70;2.13;;;16.00;72.30;;;;;;10538999;28;20067;-62
2022/05/28 13:08:21;;;;;;;6.63;1.20;;;15.40;74.10;;;;;;10539072;28;20028;-60
2022/05/28 13:13:31;;;;;;;6.22;1.88;;;15.00;75.30;;;;;;10538495;28;20044;-63
2022/05/28 13:18:53;;;;;;;7.90;1.48;;;14.80;75.90;;;;;;10538655;28;20036;-60
2022/05/28 13:24:21;;;;;;;10.43;1.52;;;14.80;76.50;;;;;;10538334;28;20036;-56
2022/05/28 13:29:41;;;;;;;7.47;2.42;;;15.20;76.10;;;;;;10538571;28;20068;-58
2022/05/28 13:34:41;;;;;;;5.05;1.52;;;15.70;75.70;;;;;;10537867;28;20056;-57
2022/05/28 13:39:46;;;;;;;7.55;1.23;;;16.00;74.80;;;;;;10537873;28;20059;-59
2022/05/28 13:44:47;;;;;;;4.55;1.20;;;16.40;74.60;;;;;;10537473;28;20095;-62
2022/05/28 13:49:53;;;;;;;5.93;1.33;;;16.60;74.40;;;;;;10537422;28;20066;-56
2022/05/28 13:54:59;;;;;;;5.80;1.60;;;16.80;74.20;;;;;;10537144;28;20028;-65
2022/05/28 13:59:59;;;;;;;9.27;2.47;;;17.00;74.00;;;;;;10536949;28;20028;-60
2022/05/28 14:05:00;;;;;;;5.03;1.13;;;16.80;73.10;;;;;;10536798;28;20461;-67
2022/05/28 14:10:07;;;;;;;6.47;1.20;;;16.80;72.20;;;;;;10536663;28;20048;-66
2022/05/28 14:15:16;;;;;;;4.15;1.17;;;17.10;71.40;;;;;;10536540;28;20036;-64
2022/05/28 14:20:26;;;;;;;3.45;0.85;;;17.50;69.90;;;;;;10536288;28;20036;-65
2022/05/28 14:25:35;;;;;;;2.80;0.90;;;18.10;67.80;;;;;;10534241;28;20028;-64
2022/05/28 14:30:57;;;;;;;7.03;0.90;;;18.10;67.30;;;;;;10534384;28;20404;-64
2022/05/28 14:36:34;;;;;;;4.22;0.93;;;18.10;67.70;;;;;;10534575;28;20044;-65
2022/05/28 14:41:35;;;;;;;5.82;1.02;;;18.10;66.20;;;;;;10534388;28;20051;-64
2022/05/28 14:46:39;;;;;;;5.75;1.45;;;17.50;68.50;;;;;;10534283;28;20400;-64
2022/05/28 14:51:41;;;;;;;4.75;0.85;;;17.10;69.80;;;;;;10534426;28;20070;-65
2022/05/28 14:56:42;;;;;;;5.85;1.00;;;16.90;69.40;;;;;;10534567;28;20064;-61
2022/05/28 15:01:42;;;;;;;4.13;0.70;;;17.20;68.50;;;;;;10533722;28;20051;-64
2022/05/28 15:06:58;;;;;;;5.35;1.55;;;17.60;67.80;;;;;;10539262;28;20032;-60
2022/05/28 15:12:05;;;;;;;5.07;1.02;;;18.00;66.90;;;;;;10542312;28;20463;-57
2022/05/28 15:17:06;;;;;;;4.22;1.30;;;18.10;67.20;;;;;;10541987;28;20067;-58
2022/05/28 15:22:28;;;;;;;6.85;0.90;;;18.20;67.90;;;;;;10541714;28;20095;-58
2022/05/28 15:27:29;;;;;;;5.18;0.90;;;18.30;67.70;;;;;;10541498;28;20028;-61
2022/05/28 15:32:37;;;;;;;4.32;1.63;;;18.40;68.20;;;;;;10541336;28;20043;-59
2022/05/28 15:37:52;;;;;;;2.80;0.80;;;18.40;68.40;;;;;;10542161;28;20044;-59
2022/05/28 15:42:53;;;;;;;3.80;1.02;;;18.40;69.00;;;;;;10542373;28;20044;-60
2022/05/28 15:47:58;;;;;;;1.67;0.90;;;18.40;69.30;;;;;;10542379;28;20068;-59
2022/05/28 15:52:59;;;;;;;2.70;0.88;;;18.50;69.20;;;;;;10542122;28;20043;-59
2022/05/28 15:58:04;;;;;;;2.75;0.90;;;18.60;69.40;;;;;;10541740;28;20047;-61
2022/05/28 16:03:05;;;;;;;3.90;1.00;;;18.70;69.60;;;;;;10541508;28;20473;-62
2022/05/28 16:08:21;;;;;;;3.70;0.90;;;18.70;69.70;;;;;;10541293;28;20060;-65
2022/05/28 16:13:22;;;;;;;3.00;1.10;;;18.70;70.00;;;;;;10541474;28;20068;-62
2022/05/28 16:18:23;;;;;;;3.60;0.75;;;18.60;70.40;;;;;;10539902;28;20073;-63
2022/05/28 16:23:23;;;;;;;2.38;0.77;;;18.50;70.80;;;;;;10540923;28;20044;-61
2022/05/28 16:28:24;;;;;;;5.07;1.08;;;18.40;71.30;;;;;;10540454;28;20036;-62
2022/05/28 16:33:25;;;;;;;3.72;1.13;;;18.30;71.80;;;;;;10540262;28;20168;-60
2022/05/28 16:38:25;;;;;;;1.92;0.98;;;18.30;72.10;;;;;;10540436;28;20105;-61
2022/05/28 16:43:26;;;;;;;5.97;1.10;;;18.30;72.30;;;;;;10540405;28;20430;-61
2022/05/28 16:48:27;;;;;;;3.05;1.00;;;18.30;72.50;;;;;;10539669;28;20119;-61
2022/05/28 16:53:28;;;;;;;3.45;0.93;;;18.30;72.80;;;;;;10539597;28;20435;-61
2022/05/28 16:58:29;;;;;;;2.45;0.77;;;18.20;73.00;;;;;;10539139;28;20048;-60
2022/05/28 17:03:30;;;;;;;3.38;0.80;;;18.20;73.20;;;;;;10538918;28;20047;-61
2022/05/28 17:08:31;;;;;;;3.72;0.88;;;18.10;73.40;;;;;;10538636;28;20048;-61
2022/05/28 17:13:32;;;;;;;4.40;0.70;;;18.10;73.60;;;;;;10538503;28;20111;-60
2022/05/28 17:18:33;;;;;;;3.20;0.75;;;18.10;73.70;;;;;;10538299;28;20036;-61
2022/05/28 17:23:35;;;;;;;2.08;0.70;;;18.10;73.80;;;;;;10537826;28;20044;-61
2022/05/28 17:28:35;;;;;;;3.15;0.77;;;18.10;73.90;;;;;;10537676;28;20030;-60
2022/05/28 17:33:36;;;;;;;3.70;0.75;;;18.10;73.90;;;;;;10537834;28;20457;-60
2022/05/28 17:38:40;;;;;;;2.92;0.63;;;18.00;73.90;;;;;;10537606;28;20056;-59
2022/05/28 17:43:40;;;;;;;1.40;0.70;;;18.00;73.90;;;;;;10537636;28;20200;-61
2022/05/28 17:48:44;;;;;;;2.78;0.77;;;18.00;74.00;;;;;;10537118;28;20110;-60
2022/05/28 17:53:45;;;;;;;2.63;0.82;;;17.90;74.00;;;;;;10537009;28;20055;-61
2022/05/28 17:58:47;;;;;;;3.83;0.70;;;17.90;74.20;;;;;;10536566;28;20185;-61
2022/05/28 18:03:48;;;;;;;2.85;0.70;;;17.80;74.10;;;;;;10536747;28;20118;-59
2022/05/28 18:08:49;;;;;;;2.80;0.90;;;17.80;74.10;;;;;;10536367;28;20489;-59
2022/05/28 18:13:50;;;;;;;3.30;0.93;;;17.80;74.20;;;;;;10536663;28;20032;-59
2022/05/28 18:18:52;;;;;;;2.25;0.85;;;17.70;74.10;;;;;;10536276;28;20043;-59
2022/05/28 18:23:53;;;;;;;2.25;0.82;;;17.70;74.10;;;;;;10536078;28;20071;-61
2022/05/28 18:28:55;;;;;;;2.25;0.70;;;17.70;74.00;;;;;;10535997;28;20052;-61
2022/05/28 18:33:56;;;;;;;3.65;0.95;;;17.70;74.00;;;;;;10536066;28;20505;-61
2022/05/28 18:38:58;;;;;;;2.35;0.80;;;17.60;74.00;;;;;;10534840;28;20040;-61
2022/05/28 18:43:59;;;;;;;2.83;0.82;;;17.60;74.20;;;;;;10535234;28;20140;-60
2022/05/28 18:49:00;;;;;;;4.53;0.80;;;17.50;74.20;;;;;;10535653;28;20473;-61
2022/05/28 18:54:06;;;;;;;3.63;1.20;;;17.50;74.40;;;;;;10535526;28;20040;-62
2022/05/28 18:59:09;;;;;;;1.98;1.00;;;17.40;74.40;;;;;;10535282;28;20049;-58
2022/05/28 19:04:10;;;;;;;1.75;0.70;;;17.40;74.60;;;;;;10535366;28;20036;-60
2022/05/28 19:09:31;;;;;;;5.57;1.13;;;17.30;74.60;;;;;;10534731;28;20124;-58
2022/05/28 19:14:34;;;;;;;4.05;0.82;;;17.30;74.60;;;;;;10535037;28;20036;-60
2022/05/28 19:19:35;;;;;;;1.05;0.60;;;17.20;74.70;;;;;;10534829;28;20032;-60
2022/05/28 19:24:36;;;;;;;4.00;0.75;;;17.20;74.70;;;;;;10534908;28;20051;-58
2022/05/28 19:29:50;;;;;;;2.17;0.77;;;17.10;74.70;;;;;;10535002;28;20374;-61
2022/05/28 19:34:54;;;;;;;4.20;1.15;;;17.10;74.80;;;;;;10532614;28;20060;-59
2022/05/28 19:39:54;;;;;;;4.82;0.90;;;17.10;74.80;;;;;;10535313;28;20084;-61
2022/05/28 19:44:55;;;;;;;1.77;0.95;;;17.00;74.80;;;;;;10534453;28;20124;-61
2022/05/28 19:49:57;;;;;;;4.30;0.98;;;17.00;74.80;;;;;;10534853;28;20432;-60
2022/05/28 19:54:57;;;;;;;3.70;1.10;;;16.90;74.90;;;;;;10541672;28;20047;-59
2022/05/28 19:59:58;;;;;;;2.90;1.00;;;16.90;75.10;;;;;;10541384;28;20346;-60
2022/05/28 20:04:59;;;;;;;7.40;1.65;;;16.90;75.20;;;;;;10541564;28;20061;-57
2022/05/28 20:09:59;;;;;;;5.30;1.80;;;16.90;75.30;;;;;;10541330;28;20032;-58
2022/05/28 20:15:00;;;;;;;2.70;0.82;;;16.80;75.20;;;;;;10540907;28;20036;-63
2022/05/28 20:20:01;;;;;;;2.85;0.70;;;16.80;75.20;;;;;;10540900;28;20044;-60
2022/05/28 20:25:03;;;;;;;3.00;0.80;;;16.80;75.20;;;;;;10540458;28;20139;-61
2022/05/28 20:30:04;;;;;;;4.85;1.10;;;16.80;75.20;;;;;;10540656;28;20024;-57
2022/05/28 20:35:09;;;;;;;2.20;0.90;;;16.70;75.20;;;;;;10539866;28;20040;-62
2022/05/28 20:40:11;;;;;;;3.90;0.80;;;16.70;75.20;;;;;;10540174;28;20032;-58
2022/05/28 20:45:11;;;;;;;3.58;0.88;;;16.70;75.40;;;;;;10539815;28;20539;-58
2022/05/28 20:50:23;;;;;;;2.58;0.80;;;16.70;75.40;;;;;;10539646;28;20032;-58
2022/05/28 20:55:25;;;;;;;3.85;1.42;;;16.70;75.50;;;;;;10539591;28;20097;-62
2022/05/28 21:00:26;;;;;;;1.77;0.70;;;16.60;75.50;;;;;;10539407;28;20024;-61
2022/05/28 21:05:27;;;;;;;4.38;1.15;;;16.60;75.60;;;;;;10538604;28;20491;-63
2022/05/28 21:10:28;;;;;;;1.90;0.88;;;16.60;75.60;;;;;;10538976;28;20036;-59
2022/05/28 21:15:31;;;;;;;3.85;1.15;;;16.50;75.60;;;;;;10539128;28;20086;-58
2022/05/28 21:20:31;;;;;;;6.28;1.23;;;16.50;75.60;;;;;;10538765;28;20494;-60
2022/05/28 21:25:32;;;;;;;2.25;0.88;;;16.40;75.60;;;;;;10537911;28;20086;-57
2022/05/28 21:30:33;;;;;;;3.97;0.93;;;16.40;75.70;;;;;;10538178;28;20043;-61
2022/05/28 21:35:37;;;;;;;5.13;1.58;;;16.40;75.70;;;;;;10537690;28;20074;-61
2022/05/28 21:40:40;;;;;;;4.35;1.20;;;16.30;75.70;;;;;;10537683;28;20036;-58
2022/05/28 21:45:47;;;;;;;4.20;1.33;;;16.30;75.80;;;;;;10537206;28;20036;-58
2022/05/28 21:50:54;;;;;;;2.20;0.88;;;16.30;75.80;;;;;;10537473;28;20036;-57
2022/05/28 21:55:54;;;;;;;3.47;1.13;;;16.30;75.80;;;;;;10536993;28;20085;-63
2022/05/28 22:01:00;;;;;;;2.53;1.00;;;16.20;75.80;;;;;;10536834;28;20538;-61
2022/05/28 22:06:02;;;;;;;4.25;1.00;;;16.20;75.90;;;;;;10536622;28;20122;-58
2022/05/28 22:11:02;;;;;;;3.92;1.20;;;16.20;76.00;;;;;;10536651;28;20044;-58
2022/05/28 22:16:09;;;;;;;2.92;1.20;;;16.10;75.90;;;;;;10535795;28;20509;-58
2022/05/28 22:21:10;;;;;;;3.80;1.08;;;16.10;76.00;;;;;;10536114;28;20048;-65
2022/05/28 22:26:11;;;;;;;5.55;1.40;;;16.10;76.00;;;;;;10535916;28;20036;-58
2022/05/28 22:31:24;;;;;;;4.22;0.90;;;16.10;76.70;;;;;;10536070;28;20499;-60
2022/05/28 22:36:26;;;;;;;3.33;1.30;;;16.10;76.10;;;;;;10536087;28;20442;-57
2022/05/28 22:41:27;;;;;;;2.80;1.23;;;16.10;76.20;;;;;;10535847;28;20052;-58
2022/05/28 22:46:27;;;;;;;3.42;1.73;;;16.10;76.60;;;;;;10535797;28;20025;-57
2022/05/28 22:51:28;;;;;;;4.43;1.23;;;16.10;76.80;;;;;;10535866;28;20040;-59
2022/05/28 22:56:29;;;;;;;2.03;1.00;;;16.00;76.70;;;;;;10535919;28;20491;-58
2022/05/28 23:01:31;;;;;;;4.78;1.30;;;16.10;76.80;;;;;;10535592;28;20139;-63
2022/05/28 23:06:35;;;;;;;3.90;1.20;;;16.00;76.80;;;;;;10535603;28;20066;-58
2022/05/28 23:11:35;;;;;;;2.03;1.00;;;16.00;76.90;;;;;;10535262;28;20036;-58
2022/05/28 23:16:36;;;;;;;1.88;1.17;;;16.00;77.00;;;;;;10535091;28;20032;-61
2022/05/28 23:21:40;;;;;;;3.47;0.98;;;15.90;77.00;;;;;;10535382;28;20040;-60
2022/05/28 23:26:40;;;;;;;1.95;1.10;;;15.90;77.00;;;;;;10538626;28;20036;-58
2022/05/28 23:31:45;;;;;;;4.63;1.40;;;15.90;77.10;;;;;;10543022;28;20040;-58
2022/05/28 23:36:46;;;;;;;4.72;1.20;;;15.90;77.10;;;;;;10542790;28;20500;-66
2022/05/28 23:41:46;;;;;;;1.90;1.00;;;15.90;77.10;;;;;;10542667;28;20091;-58
2022/05/28 23:46:54;;;;;;;3.53;1.10;;;15.80;77.10;;;;;;10542918;28;20119;-60
2022/05/28 23:51:55;;;;;;;1.90;0.70;;;15.60;77.10;;;;;;10542719;28;20051;-67
2022/05/28 23:56:58;;;;;;;2.63;0.90;;;15.80;77.20;;;;;;10542200;28;20040;-66
